sensor_id;sensor_type;location;lat;lon;timestamp;temperature;humidity
19536;HTU21D;9913;51.168;4.124;2023-05-21T00:01:26;14.79;100.36
19536;HTU21D;9913;51.168;4.124;2023-05-21T00:03:57;14.62;99.29
19536;HTU21D;9913;51.168;4.124;2023-05-21T00:06:26;14.68;100.70
19536;HTU21D;9913;51.168;4.124;2023-05-21T00:08:54;14.50;97.45
19536;HTU21D;9913;51.168;4.124;2023-05-21T00:11:22;14.49;99.11
19536;HTU21D;9913;51.168;4.124;2023-05-21T00:13:51;14.49;99.91
19536;HTU21D;9913;51.168;4.124;2023-05-21T00:16:19;14.41;99.20
19536;HTU21D;9913;51.168;4.124;2023-05-21T00:18:48;14.33;98.52
19536;HTU21D;9913;51.168;4.124;2023-05-21T00:21:18;14.44;99.09
19536;HTU21D;9913;51.168;4.124;2023-05-21T00:23:48;14.28;98.61
19536;HTU21D;9913;51.168;4.124;2023-05-21T00:26:17;14.25;98.05
19536;HTU21D;9913;51.168;4.124;2023-05-21T00:28:47;14.08;97.64
19536;HTU21D;9913;51.168;4.124;2023-05-21T00:31:15;14.10;97.33
19536;HTU21D;9913;51.168;4.124;2023-05-21T00:33:45;14.12;96.36
19536;HTU21D;9913;51.168;4.124;2023-05-21T00:36:13;14.18;97.51
19536;HTU21D;9913;51.168;4.124;2023-05-21T00:38:43;13.92;95.94
19536;HTU21D;9913;51.168;4.124;2023-05-21T00:41:12;13.97;96.88
19536;HTU21D;9913;51.168;4.124;2023-05-21T00:43:40;13.97;96.52
19536;HTU21D;9913;51.168;4.124;2023-05-21T00:46:12;13.93;96.57
19536;HTU21D;9913;51.168;4.124;2023-05-21T00:48:43;13.92;96.15
19536;HTU21D;9913;51.168;4.124;2023-05-21T00:51:12;13.93;96.36
19536;HTU21D;9913;51.168;4.124;2023-05-21T00:53:43;13.89;96.41
19536;HTU21D;9913;51.168;4.124;2023-05-21T00:56:11;13.83;95.46
19536;HTU21D;9913;51.168;4.124;2023-05-21T00:58:40;13.86;95.60
19536;HTU21D;9913;51.168;4.124;2023-05-21T01:01:09;13.79;94.88
19536;HTU21D;9913;51.168;4.124;2023-05-21T01:03:39;13.86;96.01
19536;HTU21D;9913;51.168;4.124;2023-05-21T01:06:09;13.71;94.34
19536;HTU21D;9913;51.168;4.124;2023-05-21T01:08:38;13.66;94.49
19536;HTU21D;9913;51.168;4.124;2023-05-21T01:11:09;13.56;93.04
19536;HTU21D;9913;51.168;4.124;2023-05-21T01:13:38;13.78;95.61
19536;HTU21D;9913;51.168;4.124;2023-05-21T01:16:08;13.79;95.62
19536;HTU21D;9913;51.168;4.124;2023-05-21T01:18:37;13.69;92.30
19536;HTU21D;9913;51.168;4.124;2023-05-21T01:21:05;13.59;93.61
19536;HTU21D;9913;51.168;4.124;2023-05-21T01:23:37;13.62;93.20
19536;HTU21D;9913;51.168;4.124;2023-05-21T01:26:05;13.47;92.01
19536;HTU21D;9913;51.168;4.124;2023-05-21T01:28:34;13.49;91.37
19536;HTU21D;9913;51.168;4.124;2023-05-21T01:31:21;13.65;92.48
19536;HTU21D;9913;51.168;4.124;2023-05-21T01:33:55;13.56;93.01
19536;HTU21D;9913;51.168;4.124;2023-05-21T01:36:29;13.54;92.38
19536;HTU21D;9913;51.168;4.124;2023-05-21T01:39:06;13.48;92.19
19536;HTU21D;9913;51.168;4.124;2023-05-21T01:41:37;13.37;87.95
19536;HTU21D;9913;51.168;4.124;2023-05-21T01:44:08;13.18;87.31
19536;HTU21D;9913;51.168;4.124;2023-05-21T01:46:38;13.15;87.08
19536;HTU21D;9913;51.168;4.124;2023-05-21T01:49:07;13.26;86.65
19536;HTU21D;9913;51.168;4.124;2023-05-21T01:51:36;13.22;88.38
19536;HTU21D;9913;51.168;4.124;2023-05-21T01:54:06;13.17;88.84
19536;HTU21D;9913;51.168;4.124;2023-05-21T01:56:34;13.24;89.15
19536;HTU21D;9913;51.168;4.124;2023-05-21T01:59:03;13.09;88.16
19536;HTU21D;9913;51.168;4.124;2023-05-21T02:01:31;13.09;87.66
19536;HTU21D;9913;51.168;4.124;2023-05-21T02:04:00;13.03;86.46
19536;HTU21D;9913;51.168;4.124;2023-05-21T02:06:28;13.17;87.01
19536;HTU21D;9913;51.168;4.124;2023-05-21T02:08:57;12.97;85.80
19536;HTU21D;9913;51.168;4.124;2023-05-21T02:11:27;12.94;86.32
19536;HTU21D;9913;51.168;4.124;2023-05-21T02:13:56;12.93;86.12
19536;HTU21D;9913;51.168;4.124;2023-05-21T02:16:24;12.91;85.00
19536;HTU21D;9913;51.168;4.124;2023-05-21T02:18:53;12.73;84.22
19536;HTU21D;9913;51.168;4.124;2023-05-21T02:21:23;12.89;85.26
19536;HTU21D;9913;51.168;4.124;2023-05-21T02:23:52;12.79;84.56
19536;HTU21D;9913;51.168;4.124;2023-05-21T02:26:20;12.89;84.69
19536;HTU21D;9913;51.168;4.124;2023-05-21T02:28:50;12.82;84.30
19536;HTU21D;9913;51.168;4.124;2023-05-21T02:31:18;12.80;83.54
19536;HTU21D;9913;51.168;4.124;2023-05-21T02:33:47;12.76;83.04
19536;HTU21D;9913;51.168;4.124;2023-05-21T02:36:15;12.57;81.70
19536;HTU21D;9913;51.168;4.124;2023-05-21T02:38:45;12.72;82.48
19536;HTU21D;9913;51.168;4.124;2023-05-21T02:41:13;12.72;82.33
19536;HTU21D;9913;51.168;4.124;2023-05-21T02:43:42;12.76;81.35
19536;HTU21D;9913;51.168;4.124;2023-05-21T02:46:11;12.73;82.26
19536;HTU21D;9913;51.168;4.124;2023-05-21T02:48:40;12.72;81.73
19536;HTU21D;9913;51.168;4.124;2023-05-21T02:51:08;12.57;80.30
19536;HTU21D;9913;51.168;4.124;2023-05-21T02:53:37;12.57;80.49
19536;HTU21D;9913;51.168;4.124;2023-05-21T02:56:06;12.48;79.83
19536;HTU21D;9913;51.168;4.124;2023-05-21T02:58:34;12.47;79.01
19536;HTU21D;9913;51.168;4.124;2023-05-21T03:01:03;12.55;79.65
19536;HTU21D;9913;51.168;4.124;2023-05-21T03:03:33;12.66;79.87
19536;HTU21D;9913;51.168;4.124;2023-05-21T03:06:02;12.55;79.81
19536;HTU21D;9913;51.168;4.124;2023-05-21T03:08:30;12.46;78.95
19536;HTU21D;9913;51.168;4.124;2023-05-21T03:10:59;12.40;78.95
19536;HTU21D;9913;51.168;4.124;2023-05-21T03:13:27;12.41;78.98
19536;HTU21D;9913;51.168;4.124;2023-05-21T03:15:55;12.34;78.62
19536;HTU21D;9913;51.168;4.124;2023-05-21T03:18:24;12.37;78.82
19536;HTU21D;9913;51.168;4.124;2023-05-21T03:20:53;12.34;78.52
19536;HTU21D;9913;51.168;4.124;2023-05-21T03:23:25;12.41;78.63
19536;HTU21D;9913;51.168;4.124;2023-05-21T03:25:54;12.42;78.72
19536;HTU21D;9913;51.168;4.124;2023-05-21T03:28:22;12.43;78.72
19536;HTU21D;9913;51.168;4.124;2023-05-21T03:30:50;12.45;78.71
19536;HTU21D;9913;51.168;4.124;2023-05-21T03:33:39;12.52;78.81
19536;HTU21D;9913;51.168;4.124;2023-05-21T03:36:30;12.64;79.04
19536;HTU21D;9913;51.168;4.124;2023-05-21T03:38:58;12.56;78.85
19536;HTU21D;9913;51.168;4.124;2023-05-21T03:41:29;12.45;79.02
19536;HTU21D;9913;51.168;4.124;2023-05-21T03:44:07;12.52;79.13
19536;HTU21D;9913;51.168;4.124;2023-05-21T03:46:55;12.40;79.47
19536;HTU21D;9913;51.168;4.124;2023-05-21T03:49:26;12.43;79.71
19536;HTU21D;9913;51.168;4.124;2023-05-21T03:51:59;12.44;79.82
19536;HTU21D;9913;51.168;4.124;2023-05-21T03:54:27;12.47;79.77
19536;HTU21D;9913;51.168;4.124;2023-05-21T03:57:00;12.45;79.81
19536;HTU21D;9913;51.168;4.124;2023-05-21T03:59:29;12.43;79.85
19536;HTU21D;9913;51.168;4.124;2023-05-21T04:01:58;12.38;80.20
19536;HTU21D;9913;51.168;4.124;2023-05-21T04:04:26;12.45;80.20
19536;HTU21D;9913;51.168;4.124;2023-05-21T04:06:55;12.53;80.30
19536;HTU21D;9913;51.168;4.124;2023-05-21T04:09:25;12.48;80.35
19536;HTU21D;9913;51.168;4.124;2023-05-21T04:11:54;12.48;80.23
19536;HTU21D;9913;51.168;4.124;2023-05-21T04:14:22;12.52;80.35
19536;HTU21D;9913;51.168;4.124;2023-05-21T04:16:51;12.46;80.25
19536;HTU21D;9913;51.168;4.124;2023-05-21T04:19:20;12.51;80.36
19536;HTU21D;9913;51.168;4.124;2023-05-21T04:21:49;12.58;80.25
19536;HTU21D;9913;51.168;4.124;2023-05-21T04:24:18;12.61;80.25
19536;HTU21D;9913;51.168;4.124;2023-05-21T04:27:10;12.60;80.23
19536;HTU21D;9913;51.168;4.124;2023-05-21T04:29:40;12.64;80.20
19536;HTU21D;9913;51.168;4.124;2023-05-21T04:32:10;12.66;80.33
19536;HTU21D;9913;51.168;4.124;2023-05-21T04:34:41;12.64;80.17
19536;HTU21D;9913;51.168;4.124;2023-05-21T04:37:09;12.72;80.10
19536;HTU21D;9913;51.168;4.124;2023-05-21T04:39:37;12.66;80.07
19536;HTU21D;9913;51.168;4.124;2023-05-21T04:42:11;12.64;79.84
19536;HTU21D;9913;51.168;4.124;2023-05-21T04:44:41;12.74;79.59
19536;HTU21D;9913;51.168;4.124;2023-05-21T04:47:10;12.74;79.37
19536;HTU21D;9913;51.168;4.124;2023-05-21T04:49:41;12.77;78.79
19536;HTU21D;9913;51.168;4.124;2023-05-21T04:52:10;12.93;78.51
19536;HTU21D;9913;51.168;4.124;2023-05-21T04:54:38;12.90;78.37
19536;HTU21D;9913;51.168;4.124;2023-05-21T04:57:08;12.96;78.24
19536;HTU21D;9913;51.168;4.124;2023-05-21T04:59:38;13.12;78.24
19536;HTU21D;9913;51.168;4.124;2023-05-21T05:02:09;12.99;78.51
19536;HTU21D;9913;51.168;4.124;2023-05-21T05:04:38;13.05;78.54
19536;HTU21D;9913;51.168;4.124;2023-05-21T05:07:07;13.05;78.49
19536;HTU21D;9913;51.168;4.124;2023-05-21T05:09:35;13.00;78.25
19536;HTU21D;9913;51.168;4.124;2023-05-21T05:12:04;13.01;77.86
19536;HTU21D;9913;51.168;4.124;2023-05-21T05:14:32;13.09;77.54
19536;HTU21D;9913;51.168;4.124;2023-05-21T05:17:02;13.11;77.44
19536;HTU21D;9913;51.168;4.124;2023-05-21T05:19:31;13.05;77.27
19536;HTU21D;9913;51.168;4.124;2023-05-21T05:22:01;13.18;77.11
19536;HTU21D;9913;51.168;4.124;2023-05-21T05:24:30;13.40;76.95
19536;HTU21D;9913;51.168;4.124;2023-05-21T05:26:58;13.32;76.83
19536;HTU21D;9913;51.168;4.124;2023-05-21T05:29:26;13.35;76.83
19536;HTU21D;9913;51.168;4.124;2023-05-21T05:31:55;13.49;76.77
19536;HTU21D;9913;51.168;4.124;2023-05-21T05:34:24;13.60;76.50
19536;HTU21D;9913;51.168;4.124;2023-05-21T05:36:53;13.65;76.59
19536;HTU21D;9913;51.168;4.124;2023-05-21T05:39:23;13.75;76.62
19536;HTU21D;9913;51.168;4.124;2023-05-21T05:41:51;13.97;76.41
19536;HTU21D;9913;51.168;4.124;2023-05-21T05:44:20;13.89;76.31
19536;HTU21D;9913;51.168;4.124;2023-05-21T05:46:48;14.04;76.28
19536;HTU21D;9913;51.168;4.124;2023-05-21T05:49:17;14.11;76.45
19536;HTU21D;9913;51.168;4.124;2023-05-21T05:51:46;14.14;76.02
19536;HTU21D;9913;51.168;4.124;2023-05-21T05:54:15;14.25;76.09
19536;HTU21D;9913;51.168;4.124;2023-05-21T05:56:43;14.39;76.10
19536;HTU21D;9913;51.168;4.124;2023-05-21T05:59:12;14.34;76.36
19536;HTU21D;9913;51.168;4.124;2023-05-21T06:01:46;14.55;76.67
19536;HTU21D;9913;51.168;4.124;2023-05-21T06:04:15;14.58;76.83
19536;HTU21D;9913;51.168;4.124;2023-05-21T06:06:43;14.67;77.02
19536;HTU21D;9913;51.168;4.124;2023-05-21T06:09:13;14.70;77.41
19536;HTU21D;9913;51.168;4.124;2023-05-21T06:11:41;14.86;77.47
19536;HTU21D;9913;51.168;4.124;2023-05-21T06:14:10;14.82;78.08
19536;HTU21D;9913;51.168;4.124;2023-05-21T06:16:38;14.91;78.08
19536;HTU21D;9913;51.168;4.124;2023-05-21T06:19:07;15.03;78.69
19536;HTU21D;9913;51.168;4.124;2023-05-21T06:21:35;14.97;78.21
19536;HTU21D;9913;51.168;4.124;2023-05-21T06:24:06;15.13;78.73
19536;HTU21D;9913;51.168;4.124;2023-05-21T06:26:35;15.03;79.02
19536;HTU21D;9913;51.168;4.124;2023-05-21T06:29:04;15.15;79.19
19536;HTU21D;9913;51.168;4.124;2023-05-21T06:31:33;15.31;80.19
19536;HTU21D;9913;51.168;4.124;2023-05-21T06:34:02;15.27;79.91
19536;HTU21D;9913;51.168;4.124;2023-05-21T06:36:32;15.33;80.79
19536;HTU21D;9913;51.168;4.124;2023-05-21T06:39:00;15.45;82.24
19536;HTU21D;9913;51.168;4.124;2023-05-21T06:41:30;15.41;82.61
19536;HTU21D;9913;51.168;4.124;2023-05-21T06:44:03;15.43;82.91
19536;HTU21D;9913;51.168;4.124;2023-05-21T06:46:38;15.57;84.18
19536;HTU21D;9913;51.168;4.124;2023-05-21T06:49:09;15.68;83.80
19536;HTU21D;9913;51.168;4.124;2023-05-21T06:51:40;15.73;85.02
19536;HTU21D;9913;51.168;4.124;2023-05-21T06:54:10;15.69;85.93
19536;HTU21D;9913;51.168;4.124;2023-05-21T06:56:39;15.82;85.95
19536;HTU21D;9913;51.168;4.124;2023-05-21T06:59:09;15.90;86.96
19536;HTU21D;9913;51.168;4.124;2023-05-21T07:01:38;15.85;87.79
19536;HTU21D;9913;51.168;4.124;2023-05-21T07:04:08;16.03;88.97
19536;HTU21D;9913;51.168;4.124;2023-05-21T07:06:38;15.90;87.94
19536;HTU21D;9913;51.168;4.124;2023-05-21T07:09:07;15.89;88.51
19536;HTU21D;9913;51.168;4.124;2023-05-21T07:11:36;15.87;88.10
19536;HTU21D;9913;51.168;4.124;2023-05-21T07:14:08;15.77;87.84
19536;HTU21D;9913;51.168;4.124;2023-05-21T07:16:37;15.92;86.48
19536;HTU21D;9913;51.168;4.124;2023-05-21T07:19:07;16.16;88.28
19536;HTU21D;9913;51.168;4.124;2023-05-21T07:21:35;16.25;89.72
19536;HTU21D;9913;51.168;4.124;2023-05-21T07:24:06;16.21;89.46
19536;HTU21D;9913;51.168;4.124;2023-05-21T07:26:37;16.24;90.72
19536;HTU21D;9913;51.168;4.124;2023-05-21T07:29:08;16.34;90.89
19536;HTU21D;9913;51.168;4.124;2023-05-21T07:31:37;16.32;94.60
19536;HTU21D;9913;51.168;4.124;2023-05-21T07:34:06;16.60;93.89
19536;HTU21D;9913;51.168;4.124;2023-05-21T07:36:34;16.81;93.63
19536;HTU21D;9913;51.168;4.124;2023-05-21T07:39:03;16.66;92.13
19536;HTU21D;9913;51.168;4.124;2023-05-21T07:41:32;16.76;93.95
19536;HTU21D;9913;51.168;4.124;2023-05-21T07:44:04;16.64;95.54
19536;HTU21D;9913;51.168;4.124;2023-05-21T07:46:38;16.70;95.74
19536;HTU21D;9913;51.168;4.124;2023-05-21T07:49:08;16.84;94.48
19536;HTU21D;9913;51.168;4.124;2023-05-21T07:51:43;16.71;93.84
19536;HTU21D;9913;51.168;4.124;2023-05-21T07:54:12;17.02;91.34
19536;HTU21D;9913;51.168;4.124;2023-05-21T07:56:40;16.94;95.56
19536;HTU21D;9913;51.168;4.124;2023-05-21T07:59:17;16.96;95.42
19536;HTU21D;9913;51.168;4.124;2023-05-21T08:01:47;17.05;98.19
19536;HTU21D;9913;51.168;4.124;2023-05-21T08:04:16;17.29;96.29
19536;HTU21D;9913;51.168;4.124;2023-05-21T08:06:45;17.55;98.75
19536;HTU21D;9913;51.168;4.124;2023-05-21T08:09:14;17.25;97.01
19536;HTU21D;9913;51.168;4.124;2023-05-21T08:11:43;17.28;100.18
19536;HTU21D;9913;51.168;4.124;2023-05-21T08:14:11;17.09;98.66
19536;HTU21D;9913;51.168;4.124;2023-05-21T08:16:39;17.38;98.82
19536;HTU21D;9913;51.168;4.124;2023-05-21T08:19:09;17.66;98.32
19536;HTU21D;9913;51.168;4.124;2023-05-21T08:21:38;17.96;100.48
19536;HTU21D;9913;51.168;4.124;2023-05-21T08:24:06;18.12;100.02
19536;HTU21D;9913;51.168;4.124;2023-05-21T08:26:35;17.77;102.22
19536;HTU21D;9913;51.168;4.124;2023-05-21T08:29:03;17.88;102.31
19536;HTU21D;9913;51.168;4.124;2023-05-21T08:31:31;17.91;101.86
19536;HTU21D;9913;51.168;4.124;2023-05-21T08:34:00;17.73;100.55
19536;HTU21D;9913;51.168;4.124;2023-05-21T08:36:39;17.76;101.66
19536;HTU21D;9913;51.168;4.124;2023-05-21T08:39:27;17.87;102.43
19536;HTU21D;9913;51.168;4.124;2023-05-21T08:42:02;17.63;101.18
19536;HTU21D;9913;51.168;4.124;2023-05-21T08:44:32;18.04;104.76
19536;HTU21D;9913;51.168;4.124;2023-05-21T08:47:06;18.03;100.14
19536;HTU21D;9913;51.168;4.124;2023-05-21T08:49:34;18.29;104.38
19536;HTU21D;9913;51.168;4.124;2023-05-21T08:52:05;17.93;103.76
19536;HTU21D;9913;51.168;4.124;2023-05-21T08:54:46;18.13;102.12
19536;HTU21D;9913;51.168;4.124;2023-05-21T08:57:45;18.19;102.75
19536;HTU21D;9913;51.168;4.124;2023-05-21T09:00:16;18.28;102.83
19536;HTU21D;9913;51.168;4.124;2023-05-21T09:02:46;18.50;102.25
19536;HTU21D;9913;51.168;4.124;2023-05-21T09:05:17;18.21;105.53
19536;HTU21D;9913;51.168;4.124;2023-05-21T09:07:54;18.29;105.60
19536;HTU21D;9913;51.168;4.124;2023-05-21T09:10:48;18.52;105.59
19536;HTU21D;9913;51.168;4.124;2023-05-21T09:13:19;18.38;100.25
19536;HTU21D;9913;51.168;4.124;2023-05-21T09:15:50;18.56;106.78
19536;HTU21D;9913;51.168;4.124;2023-05-21T09:18:20;18.51;105.98
19536;HTU21D;9913;51.168;4.124;2023-05-21T09:20:53;18.84;109.86
19536;HTU21D;9913;51.168;4.124;2023-05-21T09:23:27;19.21;108.19
19536;HTU21D;9913;51.168;4.124;2023-05-21T09:25:56;19.18;110.05
19536;HTU21D;9913;51.168;4.124;2023-05-21T09:28:30;19.29;109.74
19536;HTU21D;9913;51.168;4.124;2023-05-21T09:31:02;19.26;110.29
19536;HTU21D;9913;51.168;4.124;2023-05-21T09:33:30;19.50;108.87
19536;HTU21D;9913;51.168;4.124;2023-05-21T09:36:00;19.50;110.29
19536;HTU21D;9913;51.168;4.124;2023-05-21T09:38:32;19.76;104.08
19536;HTU21D;9913;51.168;4.124;2023-05-21T09:41:03;19.96;103.47
19536;HTU21D;9913;51.168;4.124;2023-05-21T09:43:33;19.59;108.89
19536;HTU21D;9913;51.168;4.124;2023-05-21T09:46:03;19.74;108.58
19536;HTU21D;9913;51.168;4.124;2023-05-21T09:48:35;19.87;108.78
19536;HTU21D;9913;51.168;4.124;2023-05-21T09:51:11;20.04;102.60
19536;HTU21D;9913;51.168;4.124;2023-05-21T09:53:48;19.99;100.62
19536;HTU21D;9913;51.168;4.124;2023-05-21T09:56:18;19.80;108.91
19536;HTU21D;9913;51.168;4.124;2023-05-21T09:58:50;19.98;105.99
19536;HTU21D;9913;51.168;4.124;2023-05-21T10:01:20;19.95;111.13
19536;HTU21D;9913;51.168;4.124;2023-05-21T10:03:53;19.55;107.94
19536;HTU21D;9913;51.168;4.124;2023-05-21T10:06:25;19.59;108.29
19536;HTU21D;9913;51.168;4.124;2023-05-21T10:08:56;20.44;111.86
19536;HTU21D;9913;51.168;4.124;2023-05-21T10:11:25;20.34;109.88
19536;HTU21D;9913;51.168;4.124;2023-05-21T10:13:57;20.22;106.66
19536;HTU21D;9913;51.168;4.124;2023-05-21T10:16:29;20.45;109.65
19536;HTU21D;9913;51.168;4.124;2023-05-21T10:18:59;20.31;108.10
19536;HTU21D;9913;51.168;4.124;2023-05-21T10:21:29;20.47;105.96
19536;HTU21D;9913;51.168;4.124;2023-05-21T10:24:01;20.33;110.23
19536;HTU21D;9913;51.168;4.124;2023-05-21T10:26:30;20.41;108.20
19536;HTU21D;9913;51.168;4.124;2023-05-21T10:28:59;20.81;110.00
19536;HTU21D;9913;51.168;4.124;2023-05-21T10:31:28;20.41;104.58
19536;HTU21D;9913;51.168;4.124;2023-05-21T10:33:57;20.70;109.26
19536;HTU21D;9913;51.168;4.124;2023-05-21T10:36:29;20.76;108.85
19536;HTU21D;9913;51.168;4.124;2023-05-21T10:39:00;21.19;111.11
19536;HTU21D;9913;51.168;4.124;2023-05-21T10:41:34;21.19;109.49
19536;HTU21D;9913;51.168;4.124;2023-05-21T10:44:14;21.54;107.51
19536;HTU21D;9913;51.168;4.124;2023-05-21T10:47:09;20.87;109.29
19536;HTU21D;9913;51.168;4.124;2023-05-21T10:50:02;21.42;111.99
19536;HTU21D;9913;51.168;4.124;2023-05-21T10:52:43;21.10;110.42
19536;HTU21D;9913;51.168;4.124;2023-05-21T10:55:35;21.84;108.99
19536;HTU21D;9913;51.168;4.124;2023-05-21T11:00:56;21.54;110.94
19536;HTU21D;9913;51.168;4.124;2023-05-21T11:03:27;21.54;106.82
19536;HTU21D;9913;51.168;4.124;2023-05-21T11:05:56;21.44;109.97
19536;HTU21D;9913;51.168;4.124;2023-05-21T11:08:27;20.70;108.70
19536;HTU21D;9913;51.168;4.124;2023-05-21T11:10:58;20.69;109.94
19536;HTU21D;9913;51.168;4.124;2023-05-21T11:13:28;20.85;108.52
19536;HTU21D;9913;51.168;4.124;2023-05-21T11:16:03;20.70;110.66
19536;HTU21D;9913;51.168;4.124;2023-05-21T11:19:01;20.56;106.44
19536;HTU21D;9913;51.168;4.124;2023-05-21T11:21:31;20.49;110.49
19536;HTU21D;9913;51.168;4.124;2023-05-21T11:24:04;20.29;109.33
19536;HTU21D;9913;51.168;4.124;2023-05-21T11:27:01;20.77;110.67
19536;HTU21D;9913;51.168;4.124;2023-05-21T11:29:35;21.63;109.43
19536;HTU21D;9913;51.168;4.124;2023-05-21T11:32:06;21.06;109.57
19536;HTU21D;9913;51.168;4.124;2023-05-21T11:34:37;20.88;108.08
19536;HTU21D;9913;51.168;4.124;2023-05-21T11:37:29;20.70;109.74
19536;HTU21D;9913;51.168;4.124;2023-05-21T11:40:16;20.49;108.70
19536;HTU21D;9913;51.168;4.124;2023-05-21T11:42:49;20.51;108.71
19536;HTU21D;9913;51.168;4.124;2023-05-21T11:45:19;20.73;111.77
19536;HTU21D;9913;51.168;4.124;2023-05-21T11:47:49;20.79;107.96
19536;HTU21D;9913;51.168;4.124;2023-05-21T11:50:18;20.66;110.76
19536;HTU21D;9913;51.168;4.124;2023-05-21T11:52:47;20.68;110.73
19536;HTU21D;9913;51.168;4.124;2023-05-21T11:55:20;20.58;109.72
19536;HTU21D;9913;51.168;4.124;2023-05-21T11:57:53;20.75;110.65
19536;HTU21D;9913;51.168;4.124;2023-05-21T12:00:22;20.58;108.33
19536;HTU21D;9913;51.168;4.124;2023-05-21T12:02:51;20.65;108.68
19536;HTU21D;9913;51.168;4.124;2023-05-21T12:05:23;20.74;107.82
19536;HTU21D;9913;51.168;4.124;2023-05-21T12:07:53;21.15;110.34
19536;HTU21D;9913;51.168;4.124;2023-05-21T12:10:22;21.08;109.46
19536;HTU21D;9913;51.168;4.124;2023-05-21T12:12:50;21.09;111.74
19536;HTU21D;9913;51.168;4.124;2023-05-21T12:15:25;21.28;109.08
19536;HTU21D;9913;51.168;4.124;2023-05-21T12:17:54;20.99;107.92
19536;HTU21D;9913;51.168;4.124;2023-05-21T12:20:27;20.84;110.69
19536;HTU21D;9913;51.168;4.124;2023-05-21T12:22:58;20.86;111.42
19536;HTU21D;9913;51.168;4.124;2023-05-21T12:25:27;20.72;111.55
19536;HTU21D;9913;51.168;4.124;2023-05-21T12:27:58;20.70;110.92
19536;HTU21D;9913;51.168;4.124;2023-05-21T12:30:29;20.92;110.84
19536;HTU21D;9913;51.168;4.124;2023-05-21T12:32:58;21.13;111.06
19536;HTU21D;9913;51.168;4.124;2023-05-21T12:35:29;21.30;109.20
19536;HTU21D;9913;51.168;4.124;2023-05-21T12:37:59;21.14;111.62
19536;HTU21D;9913;51.168;4.124;2023-05-21T12:40:34;21.07;111.37
19536;HTU21D;9913;51.168;4.124;2023-05-21T12:43:05;20.80;110.18
19536;HTU21D;9913;51.168;4.124;2023-05-21T12:45:34;20.96;111.07
19536;HTU21D;9913;51.168;4.124;2023-05-21T12:48:05;20.81;110.09
19536;HTU21D;9913;51.168;4.124;2023-05-21T12:50:38;20.76;110.46
19536;HTU21D;9913;51.168;4.124;2023-05-21T12:53:17;20.94;111.05
19536;HTU21D;9913;51.168;4.124;2023-05-21T12:55:48;21.15;110.58
19536;HTU21D;9913;51.168;4.124;2023-05-21T12:58:20;21.15;109.68
19536;HTU21D;9913;51.168;4.124;2023-05-21T13:01:09;21.27;109.89
19536;HTU21D;9913;51.168;4.124;2023-05-21T13:03:39;20.99;110.90
19536;HTU21D;9913;51.168;4.124;2023-05-21T13:06:08;21.00;110.81
19536;HTU21D;9913;51.168;4.124;2023-05-21T13:08:36;21.08;111.09
19536;HTU21D;9913;51.168;4.124;2023-05-21T13:11:05;21.31;111.66
19536;HTU21D;9913;51.168;4.124;2023-05-21T13:13:33;21.17;110.98
19536;HTU21D;9913;51.168;4.124;2023-05-21T13:16:01;21.46;110.49
19536;HTU21D;9913;51.168;4.124;2023-05-21T13:18:31;21.38;111.00
19536;HTU21D;9913;51.168;4.124;2023-05-21T13:20:59;21.36;111.69
19536;HTU21D;9913;51.168;4.124;2023-05-21T13:23:28;21.38;110.89
19536;HTU21D;9913;51.168;4.124;2023-05-21T13:25:56;21.59;108.94
19536;HTU21D;9913;51.168;4.124;2023-05-21T13:28:24;21.51;109.56
19536;HTU21D;9913;51.168;4.124;2023-05-21T13:30:52;21.63;110.30
19536;HTU21D;9913;51.168;4.124;2023-05-21T13:33:21;21.63;111.04
19536;HTU21D;9913;51.168;4.124;2023-05-21T13:35:51;22.11;111.02
19536;HTU21D;9913;51.168;4.124;2023-05-21T13:38:19;21.67;110.37
19536;HTU21D;9913;51.168;4.124;2023-05-21T13:40:48;21.73;111.71
19536;HTU21D;9913;51.168;4.124;2023-05-21T13:43:16;21.54;111.12
19536;HTU21D;9913;51.168;4.124;2023-05-21T13:45:46;21.54;110.43
19536;HTU21D;9913;51.168;4.124;2023-05-21T13:48:15;21.65;110.26
19536;HTU21D;9913;51.168;4.124;2023-05-21T13:50:44;21.68;110.42
19536;HTU21D;9913;51.168;4.124;2023-05-21T13:53:14;22.06;110.10
19536;HTU21D;9913;51.168;4.124;2023-05-21T13:55:42;21.70;110.18
19536;HTU21D;9913;51.168;4.124;2023-05-21T13:58:10;21.89;111.68
19536;HTU21D;9913;51.168;4.124;2023-05-21T14:00:39;21.31;109.84
19536;HTU21D;9913;51.168;4.124;2023-05-21T14:03:09;21.94;111.69
19536;HTU21D;9913;51.168;4.124;2023-05-21T14:05:37;22.52;110.72
19536;HTU21D;9913;51.168;4.124;2023-05-21T14:08:05;22.85;111.22
19536;HTU21D;9913;51.168;4.124;2023-05-21T14:10:35;22.75;109.91
19536;HTU21D;9913;51.168;4.124;2023-05-21T14:13:04;22.67;109.10
19536;HTU21D;9913;51.168;4.124;2023-05-21T14:15:45;22.80;109.70
19536;HTU21D;9913;51.168;4.124;2023-05-21T14:18:14;23.54;107.98
19536;HTU21D;9913;51.168;4.124;2023-05-21T14:20:42;23.13;106.83
19536;HTU21D;9913;51.168;4.124;2023-05-21T14:23:13;22.60;108.67
19536;HTU21D;9913;51.168;4.124;2023-05-21T14:25:43;22.40;109.34
19536;HTU21D;9913;51.168;4.124;2023-05-21T14:28:11;22.37;109.74
19536;HTU21D;9913;51.168;4.124;2023-05-21T14:30:39;23.35;108.46
19536;HTU21D;9913;51.168;4.124;2023-05-21T14:33:08;23.62;106.40
19536;HTU21D;9913;51.168;4.124;2023-05-21T14:35:37;23.55;105.39
19536;HTU21D;9913;51.168;4.124;2023-05-21T14:38:07;22.72;107.17
19536;HTU21D;9913;51.168;4.124;2023-05-21T14:40:35;23.64;109.52
19536;HTU21D;9913;51.168;4.124;2023-05-21T14:43:05;24.46;103.83
19536;HTU21D;9913;51.168;4.124;2023-05-21T14:45:33;22.91;106.59
19536;HTU21D;9913;51.168;4.124;2023-05-21T14:48:01;22.51;108.85
19536;HTU21D;9913;51.168;4.124;2023-05-21T14:50:34;22.01;109.27
19536;HTU21D;9913;51.168;4.124;2023-05-21T14:53:03;22.01;110.55
19536;HTU21D;9913;51.168;4.124;2023-05-21T14:55:32;22.32;110.38
19536;HTU21D;9913;51.168;4.124;2023-05-21T14:58:04;22.99;109.50
19536;HTU21D;9913;51.168;4.124;2023-05-21T15:00:33;22.83;108.90
19536;HTU21D;9913;51.168;4.124;2023-05-21T15:03:03;22.91;110.70
19536;HTU21D;9913;51.168;4.124;2023-05-21T15:05:31;23.20;107.37
19536;HTU21D;9913;51.168;4.124;2023-05-21T15:08:00;23.32;108.04
19536;HTU21D;9913;51.168;4.124;2023-05-21T15:10:30;23.16;108.46
19536;HTU21D;9913;51.168;4.124;2023-05-21T15:12:58;23.56;107.32
19536;HTU21D;9913;51.168;4.124;2023-05-21T15:15:28;23.25;106.19
19536;HTU21D;9913;51.168;4.124;2023-05-21T15:17:56;23.79;106.80
19536;HTU21D;9913;51.168;4.124;2023-05-21T15:20:24;23.35;107.25
19536;HTU21D;9913;51.168;4.124;2023-05-21T15:22:52;23.31;105.89
19536;HTU21D;9913;51.168;4.124;2023-05-21T15:25:41;23.80;106.57
19536;HTU21D;9913;51.168;4.124;2023-05-21T15:28:09;24.21;103.80
19536;HTU21D;9913;51.168;4.124;2023-05-21T15:30:39;24.39;101.67
19536;HTU21D;9913;51.168;4.124;2023-05-21T15:33:07;23.97;103.01
19536;HTU21D;9913;51.168;4.124;2023-05-21T15:35:37;23.96;105.15
19536;HTU21D;9913;51.168;4.124;2023-05-21T15:38:05;24.46;102.12
19536;HTU21D;9913;51.168;4.124;2023-05-21T15:40:34;24.05;101.31
19536;HTU21D;9913;51.168;4.124;2023-05-21T15:43:02;24.35;101.89
19536;HTU21D;9913;51.168;4.124;2023-05-21T15:45:30;24.38;101.15
19536;HTU21D;9913;51.168;4.124;2023-05-21T15:48:00;23.74;101.09